Time;durP1;ratioP1;P1;durP2;ratioP2;P2;SDS_P1;SDS_P2;PMS_P1;PMS_P2;Temp;Humidity;BMP_temperature;BMP_pressure;BME280_temperature;BME280_humidity;BME280_pressure;Samples;Min_cycle;Max_cycle;Signal;HPM_P1;HPM_P2
2021/07/26 00:00:21;;;;;;;14.02;9.75;;;17.80;80.80;;;;;;5008304;28;20030;-82
2021/07/26 00:02:46;;;;;;;13.20;9.27;;;17.80;79.90;;;;;;5007386;28;20037;-82
2021/07/26 00:05:12;;;;;;;13.10;9.35;;;17.70;79.60;;;;;;5010188;28;20091;-82
2021/07/26 00:07:38;;;;;;;13.52;9.25;;;17.70;81.00;;;;;;5022167;28;20021;-82
2021/07/26 00:10:05;;;;;;;12.35;8.73;;;17.70;80.90;;;;;;5014371;28;20380;-81
2021/07/26 00:12:32;;;;;;;13.65;9.25;;;17.80;80.80;;;;;;5012356;28;20121;-82
2021/07/26 00:14:59;;;;;;;14.35;8.75;;;17.70;80.70;;;;;;5012063;28;20030;-81
2021/07/26 00:17:26;;;;;;;13.68;9.40;;;17.80;81.60;;;;;;5007977;28;20112;-81
2021/07/26 00:19:51;;;;;;;12.75;10.30;;;17.90;81.10;;;;;;4999028;28;20032;-81
2021/07/26 00:22:17;;;;;;;13.27;9.90;;;17.80;82.00;;;;;;5014670;28;20022;-81
2021/07/26 00:24:43;;;;;;;13.85;9.18;;;18.00;80.90;;;;;;5013874;28;20530;-81
2021/07/26 00:27:08;;;;;;;15.30;9.82;;;18.00;80.80;;;;;;5013075;28;20037;-81
2021/07/26 00:29:34;;;;;;;13.60;9.77;;;18.10;81.30;;;;;;5014188;28;20491;-81
2021/07/26 00:31:59;;;;;;;14.27;9.85;;;18.10;81.10;;;;;;5010373;28;20068;-81
2021/07/26 00:34:26;;;;;;;12.45;9.32;;;18.20;80.50;;;;;;5013674;28;20555;-81
2021/07/26 00:36:54;;;;;;;12.95;8.70;;;18.20;81.20;;;;;;5013578;28;20084;-81
2021/07/26 00:39:22;;;;;;;15.32;9.10;;;18.20;81.30;;;;;;5013069;28;20402;-81
2021/07/26 00:41:49;;;;;;;16.23;9.25;;;18.20;80.80;;;;;;5013775;28;20029;-81
2021/07/26 00:44:16;;;;;;;13.85;9.65;;;18.30;80.40;;;;;;5010250;28;20029;-81
2021/07/26 00:46:44;;;;;;;14.43;9.48;;;18.20;80.70;;;;;;5011964;28;20044;-82
2021/07/26 00:49:11;;;;;;;12.70;9.20;;;18.20;80.60;;;;;;5013835;28;20057;-82
2021/07/26 00:51:48;;;;;;;14.55;9.93;;;18.20;80.60;;;;;;5011791;28;20080;-81
2021/07/26 00:54:22;;;;;;;13.50;9.93;;;18.30;80.20;;;;;;5012124;28;20072;-83
2021/07/26 00:56:49;;;;;;;12.93;9.57;;;18.30;80.80;;;;;;5010027;28;20034;-82
2021/07/26 00:59:15;;;;;;;14.25;10.02;;;18.30;80.40;;;;;;5011533;28;20057;-82
2021/07/26 01:01:41;;;;;;;13.48;9.25;;;18.30;80.70;;;;;;5011902;28;20029;-81
2021/07/26 01:04:07;;;;;;;14.20;9.98;;;18.30;80.90;;;;;;5012095;28;20057;-82
2021/07/26 01:06:33;;;;;;;12.23;9.43;;;18.30;80.70;;;;;;5010083;28;20068;-82
2021/07/26 01:09:00;;;;;;;13.80;8.98;;;18.30;80.70;;;;;;5011371;28;20042;-82
2021/07/26 01:11:26;;;;;;;13.68;9.90;;;18.40;81.30;;;;;;5010810;28;20108;-82
2021/07/26 01:13:52;;;;;;;13.60;9.20;;;18.40;80.80;;;;;;5010072;28;20060;-82
2021/07/26 01:16:18;;;;;;;14.27;9.68;;;18.40;81.20;;;;;;5014708;28;20025;-82
2021/07/26 01:18:43;;;;;;;13.15;8.90;;;18.40;80.80;;;;;;4994968;28;20561;-82
2021/07/26 01:21:14;;;;;;;16.85;10.60;;;18.40;80.70;;;;;;5009699;28;20434;-83
2021/07/26 01:23:48;;;;;;;13.57;10.10;;;18.40;80.60;;;;;;5009079;28;20165;-82
2021/07/26 01:26:16;;;;;;;15.85;10.85;;;18.40;80.90;;;;;;5012123;28;20034;-83
2021/07/26 01:28:57;;;;;;;15.77;10.75;;;18.40;80.80;;;;;;5012272;28;20029;-83
2021/07/26 01:31:23;;;;;;;15.93;12.15;;;18.40;80.70;;;;;;5010520;28;20140;-82
2021/07/26 01:33:50;;;;;;;18.75;11.45;;;18.50;80.90;;;;;;5012797;28;20034;-82
2021/07/26 01:36:18;;;;;;;14.38;10.50;;;18.40;80.60;;;;;;5010918;28;20145;-83
2021/07/26 01:38:45;;;;;;;15.18;11.00;;;18.40;80.90;;;;;;5009575;28;20034;-82
2021/07/26 01:41:17;;;;;;;13.15;10.30;;;18.40;80.80;;;;;;5010353;28;20018;-83
2021/07/26 01:47:00;;;;;;;13.65;10.23;;;18.40;80.90;;;;;;5010033;28;20033;-82
2021/07/26 01:49:44;;;;;;;15.52;10.20;;;18.30;80.70;;;;;;5008791;28;20129;-84
2021/07/26 01:52:10;;;;;;;14.45;10.13;;;18.30;80.90;;;;;;5007122;28;20022;-82
2021/07/26 01:54:35;;;;;;;14.30;10.73;;;18.30;81.30;;;;;;5009240;28;20398;-82
2021/07/26 01:57:02;;;;;;;14.43;10.25;;;18.30;81.00;;;;;;5010200;28;20057;-83
2021/07/26 01:59:28;;;;;;;15.35;10.50;;;18.30;81.10;;;;;;5009149;28;20068;-83
2021/07/26 02:01:54;;;;;;;15.35;10.40;;;18.30;81.60;;;;;;5011667;28;20027;-83
2021/07/26 02:04:19;;;;;;;15.27;10.07;;;18.30;81.90;;;;;;5013901;28;20033;-83
2021/07/26 02:06:45;;;;;;;15.27;11.15;;;18.30;81.60;;;;;;5010735;28;20066;-83
2021/07/26 02:09:11;;;;;;;15.05;10.88;;;18.30;81.90;;;;;;5011924;28;20033;-83
2021/07/26 02:11:36;;;;;;;14.75;10.93;;;18.30;81.90;;;;;;5011286;28;20026;-83
2021/07/26 02:14:09;;;;;;;15.52;10.52;;;18.30;81.90;;;;;;5011669;28;20498;-83
2021/07/26 02:16:38;;;;;;;13.32;10.23;;;18.30;82.10;;;;;;5011161;28;20018;-83
2021/07/26 02:19:04;;;;;;;13.27;9.77;;;18.30;81.60;;;;;;5006914;28;20030;-84
2021/07/26 02:21:30;;;;;;;15.32;10.32;;;18.30;81.60;;;;;;5007666;28;20227;-83
2021/07/26 02:23:56;;;;;;;13.38;9.52;;;18.30;81.80;;;;;;5009718;28;20105;-84
2021/07/26 02:26:21;;;;;;;16.80;10.40;;;18.30;81.50;;;;;;5009257;28;20556;-83
2021/07/26 02:28:47;;;;;;;15.95;10.38;;;18.30;81.10;;;;;;5010190;28;20562;-81
2021/07/26 02:31:13;;;;;;;14.25;10.27;;;18.20;81.20;;;;;;5011730;28;20116;-84
2021/07/26 02:33:38;;;;;;;14.93;9.75;;;18.10;81.50;;;;;;5010012;28;20490;-84
2021/07/26 02:36:04;;;;;;;14.18;10.45;;;18.10;81.80;;;;;;5008781;28;20037;-84
2021/07/26 02:38:30;;;;;;;14.23;10.43;;;18.00;81.50;;;;;;5008560;28;20037;-85
2021/07/26 02:40:55;;;;;;;12.68;9.63;;;18.00;81.70;;;;;;5008945;28;20111;-85
2021/07/26 02:43:21;;;;;;;14.80;9.88;;;18.00;82.00;;;;;;5012356;28;20026;-85
2021/07/26 02:45:48;;;;;;;14.38;10.68;;;17.90;81.90;;;;;;5009084;28;20613;-85
2021/07/26 02:48:14;;;;;;;15.18;10.65;;;17.80;83.50;;;;;;5009026;28;20026;-86
2021/07/26 02:50:39;;;;;;;13.52;9.32;;;17.80;82.80;;;;;;5008761;28;20529;-84
2021/07/26 02:53:05;;;;;;;15.13;10.75;;;17.80;83.80;;;;;;4995814;28;20057;-84
2021/07/26 02:55:31;;;;;;;14.55;10.20;;;17.70;83.40;;;;;;5003761;28;20076;-85
2021/07/26 02:57:57;;;;;;;15.68;10.10;;;17.70;82.80;;;;;;5004193;28;20494;-81
2021/07/26 03:00:22;;;;;;;12.43;9.30;;;17.60;83.70;;;;;;5008421;28;20095;-82
2021/07/26 03:02:48;;;;;;;13.20;10.40;;;17.60;84.20;;;;;;5008512;28;20486;-82
2021/07/26 03:05:14;;;;;;;12.63;9.20;;;17.50;83.60;;;;;;5008384;28;20067;-84
2021/07/26 03:07:39;;;;;;;15.75;10.75;;;17.50;84.60;;;;;;5008785;28;20418;-82
2021/07/26 03:10:05;;;;;;;16.27;10.57;;;17.40;84.20;;;;;;5009946;28;20076;-81
2021/07/26 03:12:31;;;;;;;13.05;10.02;;;17.40;84.00;;;;;;5008265;28;20050;-81
2021/07/26 03:14:57;;;;;;;16.55;10.68;;;17.40;84.70;;;;;;5006981;28;20461;-81
2021/07/26 03:17:25;;;;;;;13.80;10.23;;;17.40;84.60;;;;;;5008376;28;20052;-81
2021/07/26 03:19:55;;;;;;;14.48;10.43;;;17.40;83.80;;;;;;5007609;28;20044;-81
2021/07/26 03:23:08;;;;;;;15.13;10.57;;;17.30;84.30;;;;;;5007557;28;20026;-80
2021/07/26 03:25:39;;;;;;;14.77;10.38;;;17.40;84.20;;;;;;5008548;28;20026;-80
2021/07/26 03:28:04;;;;;;;12.82;10.05;;;17.30;84.80;;;;;;5008417;28;20438;-81
2021/07/26 03:30:30;;;;;;;16.75;11.20;;;17.30;84.50;;;;;;4967139;28;1180337;-83
2021/07/26 03:32:56;;;;;;;13.80;10.50;;;17.30;84.30;;;;;;5007686;28;20029;-82
2021/07/26 03:35:22;;;;;;;13.52;10.48;;;17.40;84.90;;;;;;5008836;28;20056;-82
2021/07/26 03:37:49;;;;;;;14.35;10.27;;;17.40;85.70;;;;;;5009289;28;20048;-82
2021/07/26 03:40:15;;;;;;;12.65;9.60;;;17.40;85.70;;;;;;5010559;28;20033;-82
2021/07/26 03:42:42;;;;;;;12.68;9.50;;;17.50;85.40;;;;;;5008753;28;20032;-82
2021/07/26 03:45:10;;;;;;;12.65;9.82;;;17.50;85.50;;;;;;5007464;28;20029;-83
2021/07/26 03:47:38;;;;;;;16.13;10.98;;;17.60;85.10;;;;;;5007491;28;20084;-82
2021/07/26 03:50:04;;;;;;;12.13;10.07;;;17.60;85.00;;;;;;5007357;28;20045;-83
2021/07/26 03:52:30;;;;;;;11.23;9.50;;;17.60;85.00;;;;;;5011014;28;20024;-82
2021/07/26 03:54:57;;;;;;;15.68;10.30;;;17.60;85.60;;;;;;5011057;28;20117;-82
2021/07/26 03:57:23;;;;;;;14.15;10.52;;;17.60;85.00;;;;;;5008053;28;20073;-83
2021/07/26 03:59:49;;;;;;;14.05;10.77;;;17.60;84.80;;;;;;5010966;28;20033;-83
2021/07/26 04:02:14;;;;;;;14.95;10.40;;;17.60;85.60;;;;;;5008222;28;20022;-81
2021/07/26 04:04:41;;;;;;;13.25;10.40;;;17.60;85.10;;;;;;5009797;28;20034;-82
2021/07/26 04:07:12;;;;;;;10.95;9.30;;;17.60;85.20;;;;;;5011175;28;20038;-82
2021/07/26 04:09:43;;;;;;;13.30;10.18;;;17.60;84.90;;;;;;5009339;28;20038;-82
2021/07/26 04:12:13;;;;;;;12.57;9.27;;;17.60;85.10;;;;;;5006672;28;20034;-82
2021/07/26 04:14:41;;;;;;;13.80;9.27;;;17.60;85.40;;;;;;5006963;28;20033;-82
2021/07/26 04:17:07;;;;;;;15.93;10.63;;;17.60;84.60;;;;;;5007984;28;20033;-84
2021/07/26 04:19:33;;;;;;;13.18;9.55;;;17.60;84.90;;;;;;5009433;28;20022;-84
2021/07/26 04:21:59;;;;;;;13.27;9.80;;;17.60;85.20;;;;;;5003734;28;20034;-84
2021/07/26 04:24:25;;;;;;;14.68;10.95;;;17.60;85.20;;;;;;5008731;28;20124;-84
2021/07/26 04:26:51;;;;;;;15.95;10.55;;;17.50;85.40;;;;;;5008367;28;20441;-85
2021/07/26 04:29:19;;;;;;;13.23;10.00;;;17.60;85.20;;;;;;5008260;28;20033;-84
2021/07/26 04:31:44;;;;;;;17.27;10.57;;;17.60;85.20;;;;;;5008310;28;20169;-84
2021/07/26 04:34:11;;;;;;;13.13;10.27;;;17.60;85.20;;;;;;5009287;28;20113;-83
2021/07/26 04:36:36;;;;;;;18.77;11.55;;;17.60;85.10;;;;;;5006671;28;20030;-84
2021/07/26 04:39:02;;;;;;;13.00;10.18;;;17.60;85.30;;;;;;5007268;28;20092;-84
2021/07/26 04:41:28;;;;;;;14.30;10.77;;;17.60;85.00;;;;;;5008022;28;20433;-84
2021/07/26 04:43:53;;;;;;;14.43;10.38;;;17.70;84.90;;;;;;5009801;28;20030;-84
2021/07/26 04:46:19;;;;;;;13.52;10.02;;;17.70;85.20;;;;;;5010448;28;20054;-84
2021/07/26 04:48:44;;;;;;;16.30;11.80;;;17.70;85.30;;;;;;5006913;28;20124;-84
2021/07/26 04:51:10;;;;;;;15.38;11.32;;;17.70;85.60;;;;;;5009944;28;20524;-84
2021/07/26 04:53:36;;;;;;;15.30;11.32;;;17.70;86.30;;;;;;5005978;28;20080;-83
2021/07/26 04:56:02;;;;;;;14.95;11.52;;;17.60;85.20;;;;;;5011619;28;20574;-84
2021/07/26 04:58:27;;;;;;;19.52;12.07;;;17.60;85.20;;;;;;5013146;28;20498;-84
2021/07/26 05:00:53;;;;;;;17.50;11.20;;;17.70;86.40;;;;;;5010607;28;20025;-83
2021/07/26 05:03:18;;;;;;;13.32;10.45;;;17.60;85.10;;;;;;5009927;28;20042;-81
2021/07/26 05:05:44;;;;;;;15.07;11.50;;;17.60;85.70;;;;;;5012940;28;20113;-81
2021/07/26 05:08:10;;;;;;;15.05;10.48;;;17.60;85.70;;;;;;5009925;28;20053;-84
2021/07/26 05:10:35;;;;;;;13.15;10.35;;;17.70;85.50;;;;;;5012162;28;20045;-83
2021/07/26 05:13:01;;;;;;;15.90;10.85;;;17.60;85.30;;;;;;5009374;28;20517;-81
2021/07/26 05:15:27;;;;;;;16.17;11.30;;;17.60;85.00;;;;;;5010367;28;20056;-81
2021/07/26 05:17:52;;;;;;;16.25;12.05;;;17.60;85.50;;;;;;5009555;28;20053;-88
2021/07/26 05:20:18;;;;;;;15.77;10.93;;;17.60;85.20;;;;;;5009792;28;20411;-81
2021/07/26 05:22:44;;;;;;;13.95;10.50;;;17.60;85.80;;;;;;5011346;28;20399;-82
2021/07/26 05:25:10;;;;;;;14.88;11.70;;;17.60;85.60;;;;;;5013238;28;20095;-81
2021/07/26 05:27:36;;;;;;;15.38;11.15;;;17.60;85.20;;;;;;5012426;28;20108;-82
2021/07/26 05:30:05;;;;;;;16.05;11.25;;;17.60;85.50;;;;;;5009359;28;20626;-82
2021/07/26 05:32:31;;;;;;;13.23;10.75;;;17.70;85.30;;;;;;5009315;28;20030;-82
2021/07/26 05:34:57;;;;;;;12.93;10.52;;;17.70;86.20;;;;;;5011030;28;20048;-81
2021/07/26 05:37:22;;;;;;;14.77;11.57;;;17.70;86.00;;;;;;5010635;28;20329;-82
2021/07/26 05:39:48;;;;;;;13.45;11.00;;;17.70;84.80;;;;;;5011192;28;20064;-82
2021/07/26 05:42:14;;;;;;;16.13;11.45;;;17.70;84.70;;;;;;5010760;28;20022;-80
2021/07/26 05:44:43;;;;;;;12.77;10.38;;;17.70;85.30;;;;;;5010430;28;20042;-80
2021/07/26 05:47:11;;;;;;;15.77;12.15;;;17.70;85.10;;;;;;5009661;28;20030;-80
2021/07/26 05:49:37;;;;;;;15.95;10.88;;;17.70;84.90;;;;;;5009301;28;20041;-81
2021/07/26 05:52:04;;;;;;;15.07;11.23;;;17.70;84.90;;;;;;5010130;28;20026;-81
2021/07/26 05:54:29;;;;;;;15.50;11.35;;;17.60;84.50;;;;;;5012287;28;20034;-85
2021/07/26 05:56:55;;;;;;;14.00;10.88;;;17.70;85.60;;;;;;5003686;28;20416;-80
2021/07/26 05:59:21;;;;;;;15.07;10.82;;;17.70;85.10;;;;;;5001659;28;20501;-81
2021/07/26 06:01:47;;;;;;;13.70;11.32;;;17.70;85.10;;;;;;5008714;28;20054;-80
2021/07/26 06:04:23;;;;;;;13.20;10.23;;;17.70;85.10;;;;;;5011955;28;20037;-79
2021/07/26 06:06:50;;;;;;;14.30;10.82;;;17.70;84.70;;;;;;5010038;28;20580;-79
2021/07/26 06:09:17;;;;;;;13.88;10.20;;;17.80;84.50;;;;;;5001991;28;20035;-79
2021/07/26 06:11:44;;;;;;;17.02;11.23;;;17.80;85.00;;;;;;4994015;28;20042;-79
2021/07/26 06:14:11;;;;;;;15.40;11.15;;;17.80;84.60;;;;;;4997333;28;20438;-79
2021/07/26 06:16:47;;;;;;;13.30;10.80;;;17.90;84.50;;;;;;4994167;28;20491;-79
2021/07/26 06:19:13;;;;;;;14.40;10.98;;;17.90;84.80;;;;;;4995454;28;20033;-80
2021/07/26 06:21:43;;;;;;;13.55;10.20;;;17.90;84.30;;;;;;4996555;28;20518;-79
2021/07/26 06:24:09;;;;;;;14.27;10.73;;;18.00;84.70;;;;;;5008642;28;20030;-79
2021/07/26 06:26:35;;;;;;;14.80;10.23;;;18.00;84.40;;;;;;5011198;28;20030;-79
2021/07/26 06:29:00;;;;;;;14.05;10.73;;;18.10;84.20;;;;;;5010544;28;20017;-79
2021/07/26 06:31:26;;;;;;;16.88;10.98;;;18.00;83.90;;;;;;5010448;28;20465;-80
2021/07/26 06:33:52;;;;;;;13.38;11.05;;;18.00;84.00;;;;;;5010080;28;20041;-80
2021/07/26 06:36:17;;;;;;;12.95;10.27;;;18.10;84.40;;;;;;5008983;28;20022;-79
2021/07/26 06:38:43;;;;;;;15.98;10.82;;;18.20;84.40;;;;;;5006989;28;20441;-81
2021/07/26 06:41:09;;;;;;;17.38;11.50;;;18.30;84.10;;;;;;5007816;28;20579;-80
2021/07/26 06:43:34;;;;;;;13.43;10.57;;;18.40;85.10;;;;;;5010977;28;20109;-80
2021/07/26 06:46:03;;;;;;;16.58;11.27;;;18.50;83.60;;;;;;5004937;28;20023;-81
2021/07/26 06:48:29;;;;;;;12.10;9.60;;;18.50;83.40;;;;;;5002459;28;20022;-81
2021/07/26 06:50:54;;;;;;;14.45;10.55;;;18.60;83.80;;;;;;5006664;28;20399;-81
2021/07/26 06:53:20;;;;;;;15.15;11.00;;;18.70;82.80;;;;;;5007232;28;20034;-81
2021/07/26 06:55:45;;;;;;;14.32;11.23;;;18.70;82.70;;;;;;4996666;28;20112;-81
2021/07/26 06:58:11;;;;;;;11.98;10.02;;;18.70;82.40;;;;;;4993158;28;20029;-80
2021/07/26 07:00:37;;;;;;;15.00;11.15;;;18.70;82.60;;;;;;5000090;28;20120;-84
2021/07/26 07:03:02;;;;;;;17.52;11.32;;;18.70;81.60;;;;;;4998320;28;20033;-80
2021/07/26 07:05:28;;;;;;;15.13;10.27;;;18.70;82.30;;;;;;4990916;28;20112;-81
2021/07/26 07:07:53;;;;;;;13.23;10.00;;;18.70;83.30;;;;;;4993247;28;20034;-80
2021/07/26 07:10:19;;;;;;;12.73;10.48;;;18.80;82.20;;;;;;5009157;28;20034;-78
2021/07/26 07:12:45;;;;;;;15.65;10.07;;;18.80;81.80;;;;;;5006585;28;20618;-80
2021/07/26 07:15:11;;;;;;;14.50;9.48;;;18.70;81.50;;;;;;4996082;28;20398;-80
2021/07/26 07:17:37;;;;;;;14.30;9.90;;;18.60;81.70;;;;;;4996777;28;20027;-80
2021/07/26 07:20:03;;;;;;;15.88;9.85;;;18.60;82.40;;;;;;5010611;28;20376;-79
2021/07/26 07:22:29;;;;;;;13.90;10.25;;;18.60;81.70;;;;;;5011651;28;20030;-80
2021/07/26 07:24:54;;;;;;;11.65;9.52;;;18.70;81.90;;;;;;5009895;28;20037;-79
2021/07/26 07:27:20;;;;;;;14.25;10.88;;;18.70;82.80;;;;;;5002900;28;20042;-78
2021/07/26 07:29:46;;;;;;;16.98;9.52;;;18.90;83.50;;;;;;4953398;28;20060;-78
2021/07/26 07:32:14;;;;;;;12.77;9.50;;;19.10;82.60;;;;;;4998584;28;20096;-79
2021/07/26 07:34:40;;;;;;;15.07;9.98;;;19.30;82.50;;;;;;4993816;28;20030;-80
2021/07/26 07:37:08;;;;;;;13.27;9.70;;;19.50;82.40;;;;;;4962613;28;20931;-85
2021/07/26 07:39:35;;;;;;;10.68;9.02;;;19.40;80.40;;;;;;5001740;28;20034;-86
2021/07/26 07:42:01;;;;;;;13.82;9.80;;;19.50;80.70;;;;;;5002175;28;20026;-85
2021/07/26 07:44:30;;;;;;;12.98;8.25;;;19.50;79.90;;;;;;5009410;28;20521;-86
2021/07/26 07:46:56;;;;;;;13.35;9.02;;;19.40;79.50;;;;;;5008008;28;20034;-85
2021/07/26 07:49:22;;;;;;;14.82;9.85;;;19.50;81.70;;;;;;5013897;28;20052;-85
2021/07/26 07:51:48;;;;;;;10.50;8.23;;;19.80;80.90;;;;;;4996508;28;20419;-88
2021/07/26 07:54:14;;;;;;;13.27;9.40;;;19.90;81.20;;;;;;5005991;28;20096;-87
2021/07/26 07:56:42;;;;;;;11.57;8.68;;;20.00;80.50;;;;;;5008214;28;20034;-87
2021/07/26 07:59:09;;;;;;;12.15;8.32;;;20.30;80.90;;;;;;5007120;28;20034;-87
2021/07/26 08:01:35;;;;;;;11.60;7.70;;;20.20;78.10;;;;;;5008476;28;20018;-86
2021/07/26 08:04:01;;;;;;;11.82;8.93;;;20.20;77.70;;;;;;5003906;28;20037;-87
2021/07/26 08:06:26;;;;;;;13.00;8.18;;;20.20;76.90;;;;;;5009908;28;20034;-86
2021/07/26 08:08:52;;;;;;;10.02;8.18;;;20.10;78.60;;;;;;5007378;28;20041;-87
2021/07/26 08:11:18;;;;;;;10.13;8.30;;;20.30;78.60;;;;;;5008780;28;20050;-86
2021/07/26 08:13:43;;;;;;;9.82;8.13;;;20.40;77.60;;;;;;5008502;28;20026;-87
2021/07/26 08:16:09;;;;;;;11.50;7.72;;;20.30;76.70;;;;;;5010625;28;20120;-86
2021/07/26 08:18:35;;;;;;;10.20;7.43;;;20.20;76.50;;;;;;5009644;28;20037;-87
2021/07/26 08:21:01;;;;;;;9.82;7.90;;;20.20;77.20;;;;;;5008645;28;20030;-86
2021/07/26 08:23:26;;;;;;;8.85;7.38;;;20.40;78.10;;;;;;5008575;28;20029;-87
2021/07/26 08:25:52;;;;;;;10.68;7.30;;;20.60;77.20;;;;;;4997120;28;20534;-87
2021/07/26 08:28:18;;;;;;;9.93;7.57;;;20.60;76.70;;;;;;5014054;28;20486;-87
2021/07/26 08:30:43;;;;;;;9.73;7.72;;;20.60;75.80;;;;;;5012003;28;20107;-87
2021/07/26 08:33:09;;;;;;;10.90;7.38;;;20.50;75.30;;;;;;5012382;28;20018;-86
2021/07/26 08:35:36;;;;;;;12.20;9.45;;;20.50;75.60;;;;;;5010183;28;20538;-88
2021/07/26 08:38:02;;;;;;;12.85;8.75;;;20.40;75.90;;;;;;5012624;28;20022;-87
2021/07/26 08:40:29;;;;;;;10.25;7.75;;;20.20;75.40;;;;;;5013627;28;20120;-86
2021/07/26 08:42:57;;;;;;;11.68;8.55;;;20.00;76.20;;;;;;5011210;28;20053;-85
2021/07/26 08:45:23;;;;;;;12.82;9.35;;;20.00;77.00;;;;;;5011848;28;20034;-86
2021/07/26 08:47:49;;;;;;;10.45;7.65;;;20.10;77.90;;;;;;5011786;28;20029;-87
2021/07/26 08:50:17;;;;;;;8.95;6.88;;;20.20;77.80;;;;;;5011858;28;20045;-88
2021/07/26 08:52:45;;;;;;;10.15;7.43;;;20.30;76.20;;;;;;5013426;28;20031;-87
2021/07/26 08:55:18;;;;;;;8.57;6.45;;;20.20;76.10;;;;;;5013398;28;20025;-87
2021/07/26 08:57:48;;;;;;;10.55;8.07;;;20.30;76.70;;;;;;5012176;28;20113;-87
2021/07/26 09:00:19;;;;;;;10.20;6.70;;;20.30;76.50;;;;;;5011560;28;20045;-87
2021/07/26 09:02:45;;;;;;;10.10;7.93;;;20.50;77.30;;;;;;5012929;28;20109;-86
2021/07/26 09:05:12;;;;;;;10.05;6.97;;;20.60;75.60;;;;;;5012560;28;20467;-87
2021/07/26 09:07:42;;;;;;;12.02;7.72;;;20.80;77.10;;;;;;5011983;28;20128;-87
2021/07/26 09:10:21;;;;;;;10.88;7.78;;;21.00;75.90;;;;;;5011022;28;20507;-88
2021/07/26 09:12:49;;;;;;;8.15;6.10;;;21.10;75.80;;;;;;5011432;28;20065;-88
2021/07/26 09:15:36;;;;;;;8.38;6.80;;;21.50;77.50;;;;;;5009861;28;20029;-87
2021/07/26 09:18:06;;;;;;;10.25;6.80;;;22.00;78.40;;;;;;5012370;28;20550;-87
2021/07/26 09:20:34;;;;;;;8.80;7.07;;;22.30;74.70;;;;;;5005596;28;20177;-88
2021/07/26 09:23:17;;;;;;;9.32;6.50;;;22.30;73.50;;;;;;5011315;28;20033;-88
2021/07/26 09:25:44;;;;;;;8.95;6.90;;;22.30;74.90;;;;;;5011233;28;20033;-87
2021/07/26 09:28:11;;;;;;;8.70;6.30;;;22.40;70.80;;;;;;5014595;28;20109;-88
2021/07/26 09:30:42;;;;;;;7.60;6.15;;;22.40;72.90;;;;;;5009563;28;20057;-88
2021/07/26 09:33:19;;;;;;;8.52;6.32;;;22.30;69.70;;;;;;5011386;28;20029;-87
2021/07/26 09:35:45;;;;;;;8.88;6.70;;;22.30;70.40;;;;;;5011577;28;20487;-88
2021/07/26 09:38:13;;;;;;;10.52;6.72;;;22.20;70.60;;;;;;5011278;28;20026;-90
2021/07/26 09:40:44;;;;;;;9.25;5.97;;;22.10;70.50;;;;;;5010849;28;20079;-88
2021/07/26 09:43:21;;;;;;;9.35;6.78;;;21.90;71.10;;;;;;5014182;28;20120;-88
2021/07/26 09:45:48;;;;;;;8.98;5.72;;;21.90;73.20;;;;;;5011292;28;20041;-88
2021/07/26 09:48:15;;;;;;;14.55;6.40;;;22.00;72.10;;;;;;5010994;28;20023;-88
2021/07/26 09:50:49;;;;;;;6.75;5.90;;;22.00;72.30;;;;;;5008702;28;20048;-88
2021/07/26 09:53:16;;;;;;;12.52;5.97;;;22.10;72.30;;;;;;5009243;28;20027;-88
2021/07/26 09:55:44;;;;;;;6.85;5.30;;;22.10;71.60;;;;;;5011352;28;20022;-88
2021/07/26 09:58:12;;;;;;;6.05;5.18;;;22.00;70.80;;;;;;5011544;28;20608;-88
2021/07/26 10:00:39;;;;;;;7.03;5.18;;;21.80;70.30;;;;;;5009044;28;20026;-87
2021/07/26 10:03:08;;;;;;;7.80;5.38;;;21.60;69.80;;;;;;5009635;28;20034;-88
2021/07/26 10:05:34;;;;;;;5.68;4.65;;;21.60;70.00;;;;;;5011740;28;20053;-88
2021/07/26 10:08:02;;;;;;;8.60;5.68;;;21.50;70.70;;;;;;5008500;28;20023;-88
2021/07/26 10:10:28;;;;;;;7.60;5.78;;;21.40;71.00;;;;;;5011751;28;20096;-87
2021/07/26 10:12:55;;;;;;;8.15;6.25;;;21.40;71.20;;;;;;5010901;28;20390;-88
2021/07/26 10:15:21;;;;;;;7.20;5.75;;;21.60;72.50;;;;;;5011419;28;20022;-88
2021/07/26 10:17:47;;;;;;;8.68;5.90;;;21.80;72.80;;;;;;5008015;28;20034;-87
2021/07/26 10:20:22;;;;;;;6.82;5.38;;;21.90;70.30;;;;;;5006061;28;20026;-88
2021/07/26 10:22:52;;;;;;;8.63;6.18;;;21.90;70.90;;;;;;5010880;28;20026;-88
2021/07/26 10:25:26;;;;;;;7.82;5.68;;;22.10;70.90;;;;;;5012120;28;20034;-89
2021/07/26 10:27:57;;;;;;;8.00;5.78;;;22.40;71.40;;;;;;5010646;28;20030;-88
2021/07/26 10:30:34;;;;;;;7.38;5.97;;;22.60;70.30;;;;;;5010154;28;20054;-88
2021/07/26 10:33:01;;;;;;;8.75;6.18;;;22.70;70.70;;;;;;5008683;28;20018;-89
2021/07/26 10:35:38;;;;;;;6.60;5.43;;;22.80;68.90;;;;;;5009484;28;20034;-88
2021/07/26 10:38:06;;;;;;;7.63;5.65;;;22.90;70.00;;;;;;4996995;28;20072;-88
2021/07/26 10:40:36;;;;;;;7.53;6.28;;;23.10;69.20;;;;;;5010708;28;20092;-88
2021/07/26 10:43:02;;;;;;;7.88;5.30;;;23.40;70.60;;;;;;5005328;28;20112;-88
2021/07/26 10:45:31;;;;;;;7.78;5.28;;;23.60;69.60;;;;;;5009841;28;20044;-88
2021/07/26 10:48:22;;;;;;;6.90;5.25;;;24.00;67.20;;;;;;5007610;28;20030;-89
2021/07/26 10:50:55;;;;;;;8.07;4.97;;;24.20;67.60;;;;;;5009614;28;20136;-89
2021/07/26 10:53:36;;;;;;;8.85;5.25;;;24.00;65.50;;;;;;5009650;28;20490;-88
2021/07/26 10:56:08;;;;;;;7.07;5.32;;;23.80;64.30;;;;;;4996358;28;20116;-89
2021/07/26 10:58:40;;;;;;;6.05;5.03;;;23.60;64.80;;;;;;5010471;28;20045;-88
2021/07/26 11:01:24;;;;;;;6.00;4.80;;;23.40;65.50;;;;;;5010464;28;20025;-89
2021/07/26 11:03:53;;;;;;;5.25;4.70;;;23.10;66.60;;;;;;5011441;28;20482;-88
2021/07/26 11:06:35;;;;;;;5.80;4.80;;;22.90;65.40;;;;;;5009293;28;20040;-89
2021/07/26 11:09:19;;;;;;;8.20;4.80;;;22.80;66.40;;;;;;5009725;28;20022;-87
2021/07/26 11:11:46;;;;;;;6.05;5.07;;;22.60;67.00;;;;;;5007805;28;20021;-89
2021/07/26 11:14:13;;;;;;;6.18;4.82;;;22.70;66.90;;;;;;5008266;28;20538;-89
2021/07/26 11:16:55;;;;;;;5.78;4.28;;;22.80;66.90;;;;;;5010223;28;20571;-88
2021/07/26 11:20:15;;;;;;;5.82;4.65;;;22.90;66.50;;;;;;5008321;28;20022;-88
2021/07/26 11:22:37;;;;;;;5.57;4.53;;;22.80;66.30;;;;;;5005816;28;20038;-88
2021/07/26 11:25:06;;;;;;;6.47;4.78;;;22.90;65.90;;;;;;5012294;28;20026;-89
2021/07/26 11:27:32;;;;;;;7.72;5.63;;;22.90;65.90;;;;;;5008964;28;20034;-89
2021/07/26 11:29:58;;;;;;;7.10;5.03;;;23.00;66.80;;;;;;5005103;28;20388;-88
2021/07/26 11:32:25;;;;;;;5.38;4.45;;;23.10;64.30;;;;;;5010318;28;20061;-88
2021/07/26 11:34:59;;;;;;;7.15;5.22;;;23.20;64.00;;;;;;5007823;28;20422;-89
2021/07/26 11:37:32;;;;;;;6.35;5.18;;;23.20;63.80;;;;;;5011641;28;20109;-89
2021/07/26 11:40:00;;;;;;;6.07;4.60;;;23.20;64.60;;;;;;5018402;28;20171;-89
2021/07/26 11:42:30;;;;;;;7.75;5.40;;;23.30;64.20;;;;;;5012195;28;20030;-88
2021/07/26 11:44:57;;;;;;;7.55;5.03;;;23.20;63.10;;;;;;5003608;28;20046;-87
2021/07/26 11:47:37;;;;;;;6.97;4.80;;;23.30;63.60;;;;;;5013271;28;20129;-88
2021/07/26 11:50:09;;;;;;;8.50;5.60;;;23.40;63.80;;;;;;4992553;28;20057;-86
2021/07/26 11:52:35;;;;;;;9.93;7.13;;;23.40;63.40;;;;;;5015358;28;20053;-86
2021/07/26 11:55:10;;;;;;;7.78;5.45;;;23.40;63.20;;;;;;5009465;28;20065;-88
2021/07/26 11:57:36;;;;;;;10.50;7.75;;;23.30;61.30;;;;;;5009085;28;20022;-89
2021/07/26 12:00:05;;;;;;;8.75;5.82;;;23.40;63.10;;;;;;5004809;28;20042;-90
2021/07/26 12:02:32;;;;;;;7.88;5.00;;;23.60;62.30;;;;;;4998726;28;20025;-86
2021/07/26 12:05:12;;;;;;;8.00;5.18;;;23.60;60.20;;;;;;5012015;28;20482;-88
2021/07/26 12:07:42;;;;;;;6.90;4.97;;;23.60;62.00;;;;;;5014579;28;20125;-89
2021/07/26 12:10:09;;;;;;;7.90;5.07;;;23.70;62.20;;;;;;5022268;28;20033;-89
2021/07/26 12:12:49;;;;;;;7.22;5.97;;;23.80;61.50;;;;;;5014346;28;20509;-86
2021/07/26 12:15:29;;;;;;;8.07;5.70;;;24.10;60.70;;;;;;5013329;28;20486;-87
2021/07/26 12:18:04;;;;;;;6.10;4.50;;;24.30;61.10;;;;;;5011256;28;20105;-88
2021/07/26 12:20:31;;;;;;;6.32;5.10;;;24.40;61.10;;;;;;5012347;28;20041;-87
2021/07/26 12:22:57;;;;;;;5.97;4.63;;;24.50;60.50;;;;;;5012654;28;20161;-88
2021/07/26 12:25:23;;;;;;;6.25;4.90;;;24.40;58.30;;;;;;5015322;28;20104;-87
2021/07/26 12:27:58;;;;;;;6.03;4.32;;;24.40;59.70;;;;;;5013875;28;20068;-87
2021/07/26 12:30:54;;;;;;;6.82;4.32;;;24.50;59.80;;;;;;5010486;28;20057;-87
2021/07/26 12:33:32;;;;;;;6.10;4.28;;;24.30;58.00;;;;;;5011115;28;20114;-87
2021/07/26 12:36:14;;;;;;;6.45;4.55;;;24.00;57.70;;;;;;5011619;28;20049;-86
2021/07/26 12:38:41;;;;;;;6.68;4.93;;;23.80;57.70;;;;;;5024445;28;20121;-90
2021/07/26 12:41:09;;;;;;;6.93;4.53;;;23.80;59.10;;;;;;5012838;28;20121;-85
2021/07/26 12:43:37;;;;;;;5.97;4.70;;;23.50;58.80;;;;;;5014153;28;20017;-85